Time;durP1;ratioP1;P1;durP2;ratioP2;P2;SDS_P1;SDS_P2;PMS_P1;PMS_P2;Temp;Humidity;BMP_temperature;BMP_pressure;BME280_temperature;BME280_humidity;BME280_pressure;Samples;Min_cycle;Max_cycle;Signal;HPM_P1;HPM_P2
2022/07/14 05:02:34;;;;;;;3.33;1.60;;;19.00;87.80;;;;;;5411566;23;20371;-74
2022/07/14 05:04:59;;;;;;;3.05;1.15;;;19.10;87.90;;;;;;4946263;29;20312;-73
2022/07/14 05:07:26;;;;;;;2.45;1.05;;;19.20;87.90;;;;;;4947965;29;20040;-74
2022/07/14 05:09:55;;;;;;;4.65;1.48;;;19.30;87.00;;;;;;4928051;29;20032;-74
2022/07/14 05:12:21;;;;;;;2.28;1.27;;;19.50;87.10;;;;;;4912240;29;20035;-75
2022/07/14 05:14:48;;;;;;;2.33;1.27;;;19.50;87.10;;;;;;4903918;29;20020;-75
2022/07/14 05:17:14;;;;;;;3.40;1.30;;;19.60;86.60;;;;;;4930461;29;20047;-74
2022/07/14 05:19:46;;;;;;;3.58;1.10;;;19.70;86.70;;;;;;4916142;29;20306;-74
2022/07/14 05:22:12;;;;;;;3.72;1.30;;;19.80;87.00;;;;;;4924429;29;20111;-74
2022/07/14 05:24:38;;;;;;;4.13;1.65;;;19.90;86.70;;;;;;4947541;29;20068;-74
2022/07/14 05:27:04;;;;;;;3.15;1.40;;;20.10;87.00;;;;;;4919967;29;20015;-75
2022/07/14 05:29:33;;;;;;;3.83;1.73;;;20.10;86.60;;;;;;4927641;29;20024;-75
2022/07/14 05:31:59;;;;;;;3.22;1.40;;;20.30;86.40;;;;;;4911432;29;20234;-76
2022/07/14 05:34:31;;;;;;;3.00;1.65;;;20.40;85.70;;;;;;4928031;29;20091;-74
2022/07/14 05:36:59;;;;;;;3.95;1.50;;;20.50;85.60;;;;;;4923697;29;20243;-76
2022/07/14 05:39:31;;;;;;;4.47;1.27;;;20.70;84.70;;;;;;4919070;29;20032;-76
2022/07/14 05:41:57;;;;;;;3.08;1.02;;;20.70;85.00;;;;;;4933073;29;20051;-77
2022/07/14 05:44:22;;;;;;;4.43;1.70;;;20.90;84.00;;;;;;4912661;29;20247;-78
2022/07/14 05:46:48;;;;;;;5.35;1.40;;;20.90;83.30;;;;;;4911571;29;20048;-78
2022/07/14 05:49:14;;;;;;;4.28;1.27;;;21.10;82.60;;;;;;4929690;29;20091;-78
2022/07/14 05:51:41;;;;;;;4.57;1.58;;;21.30;82.20;;;;;;4905356;29;20036;-75
2022/07/14 05:54:06;;;;;;;4.78;1.42;;;21.40;81.80;;;;;;4928098;29;20023;-75
2022/07/14 05:56:32;;;;;;;5.15;1.38;;;21.50;81.10;;;;;;4927517;29;20036;-75
2022/07/14 05:58:58;;;;;;;7.25;1.63;;;21.60;80.70;;;;;;4925866;29;20107;-74
2022/07/14 06:01:24;;;;;;;7.43;1.55;;;21.80;80.60;;;;;;4943267;29;20048;-75
2022/07/14 06:03:57;;;;;;;4.40;1.33;;;21.90;80.40;;;;;;4925942;29;20044;-74
2022/07/14 06:06:24;;;;;;;6.85;1.88;;;22.00;80.00;;;;;;4925390;29;20095;-74
2022/07/14 06:08:51;;;;;;;3.50;1.40;;;22.20;79.50;;;;;;4915016;29;20351;-74
2022/07/14 06:11:17;;;;;;;5.32;1.50;;;22.30;79.20;;;;;;4930305;29;20036;-74
2022/07/14 06:13:45;;;;;;;4.20;1.52;;;22.60;78.00;;;;;;4933617;29;20048;-74
2022/07/14 06:16:13;;;;;;;3.70;1.40;;;22.70;77.60;;;;;;4939670;29;20039;-74
2022/07/14 06:18:40;;;;;;;3.85;1.33;;;22.90;77.10;;;;;;4941655;29;20046;-74
2022/07/14 06:21:09;;;;;;;5.15;1.20;;;23.10;76.20;;;;;;4944991;29;20098;-74
2022/07/14 06:23:36;;;;;;;6.75;1.60;;;23.20;75.60;;;;;;4944490;29;20103;-73
2022/07/14 06:26:12;;;;;;;4.13;1.20;;;23.20;75.50;;;;;;4944897;29;20051;-73
2022/07/14 06:28:41;;;;;;;3.28;1.30;;;23.30;75.20;;;;;;4944433;29;20060;-76
2022/07/14 06:31:13;;;;;;;13.57;1.98;;;23.50;74.80;;;;;;4927727;29;20044;-76
2022/07/14 06:33:39;;;;;;;5.88;1.38;;;23.40;75.40;;;;;;4942743;29;20079;-76
2022/07/14 06:36:24;;;;;;;4.03;1.55;;;23.30;76.50;;;;;;4928275;29;20329;-78
2022/07/14 06:38:50;;;;;;;4.70;1.90;;;23.30;77.10;;;;;;4934015;29;20023;-76
2022/07/14 06:41:24;;;;;;;7.90;2.20;;;23.30;77.50;;;;;;4912718;29;20034;-75
2022/07/14 06:43:51;;;;;;;6.75;2.10;;;23.40;77.40;;;;;;4944155;29;20084;-78
2022/07/14 06:46:17;;;;;;;8.48;2.13;;;23.30;76.80;;;;;;4944200;29;20043;-77
2022/07/14 06:48:43;;;;;;;7.20;1.80;;;23.40;76.90;;;;;;4942970;29;20027;-77
2022/07/14 06:51:11;;;;;;;5.80;1.92;;;23.60;76.40;;;;;;4955104;29;20084;-76
2022/07/14 06:53:37;;;;;;;6.63;2.40;;;23.70;76.00;;;;;;4943392;29;20087;-76
2022/07/14 06:56:03;;;;;;;9.02;2.70;;;23.80;75.60;;;;;;4927406;29;20032;-76
2022/07/14 06:58:30;;;;;;;5.95;2.25;;;24.00;75.40;;;;;;4943643;29;20030;-77
2022/07/14 07:00:55;;;;;;;5.85;2.13;;;24.10;74.40;;;;;;4943884;29;20043;-77
2022/07/14 07:03:22;;;;;;;9.45;2.33;;;24.20;74.20;;;;;;4905608;29;1123548;-75
2022/07/14 07:08:32;;;;;;;11.48;3.20;;;24.70;73.10;;;;;;4944879;29;20128;-76
2022/07/14 07:10:58;;;;;;;9.13;3.05;;;24.90;72.10;;;;;;4945194;29;20032;-77
2022/07/14 07:13:26;;;;;;;9.13;3.05;;;25.00;72.00;;;;;;4944378;29;20083;-76
2022/07/14 07:15:53;;;;;;;7.20;2.67;;;25.10;72.00;;;;;;4927606;29;20036;-76
2022/07/14 07:18:22;;;;;;;6.20;2.25;;;25.30;71.80;;;;;;4927838;29;20382;-76
2022/07/14 07:20:48;;;;;;;11.82;2.60;;;25.40;71.50;;;;;;4945038;29;20024;-78
2022/07/14 07:23:13;;;;;;;6.63;3.08;;;25.70;71.20;;;;;;4912302;29;20282;-75
2022/07/14 07:25:39;;;;;;;6.55;2.22;;;25.90;70.60;;;;;;4927404;29;20031;-75
2022/07/14 07:28:05;;;;;;;8.23;2.10;;;26.20;70.20;;;;;;4944705;29;20035;-76
2022/07/14 07:30:31;;;;;;;7.97;2.28;;;26.50;69.40;;;;;;4943534;29;20062;-77
2022/07/14 07:32:57;;;;;;;6.95;2.10;;;26.80;69.00;;;;;;4945059;29;20028;-79
2022/07/14 07:35:22;;;;;;;4.75;1.92;;;26.80;68.30;;;;;;4945066;29;20051;-79
2022/07/14 07:37:48;;;;;;;4.63;1.70;;;26.80;68.20;;;;;;4945761;29;20031;-78
2022/07/14 07:40:15;;;;;;;10.15;3.03;;;26.80;68.30;;;;;;4945631;29;20079;-76
2022/07/14 07:42:41;;;;;;;7.15;2.50;;;26.80;68.80;;;;;;4943600;29;20039;-77
2022/07/14 07:45:08;;;;;;;6.97;2.55;;;26.70;69.20;;;;;;4944725;29;20040;-80
2022/07/14 07:47:34;;;;;;;8.05;2.75;;;26.80;68.90;;;;;;4944019;29;20042;-77
2022/07/14 07:50:00;;;;;;;6.47;2.65;;;26.80;69.00;;;;;;4945038;29;20270;-75
2022/07/14 07:52:25;;;;;;;7.10;2.60;;;27.00;68.70;;;;;;4946580;29;20035;-78
2022/07/14 07:54:51;;;;;;;7.35;2.70;;;27.20;68.40;;;;;;4947331;29;20088;-76
2022/07/14 07:57:18;;;;;;;7.50;2.78;;;27.40;67.90;;;;;;4944807;29;20032;-76
2022/07/14 07:59:43;;;;;;;6.03;2.80;;;27.70;67.30;;;;;;4947364;29;20044;-76
2022/07/14 08:02:09;;;;;;;7.15;3.08;;;27.80;66.80;;;;;;4947980;28;20094;-76
2022/07/14 08:04:35;;;;;;;11.23;3.47;;;28.00;66.70;;;;;;4945839;29;20051;-75
2022/07/14 08:07:01;;;;;;;10.07;3.65;;;28.10;66.40;;;;;;4944214;29;20076;-78
2022/07/14 08:09:27;;;;;;;10.50;4.13;;;28.20;66.20;;;;;;4942635;29;20024;-77
2022/07/14 08:11:53;;;;;;;11.52;3.97;;;28.30;66.20;;;;;;4944354;29;20043;-77
2022/07/14 08:15:01;;;;;;;13.82;3.03;;;28.40;65.70;;;;;;4944096;29;20028;-77
2022/07/14 08:17:07;;;;;;;5.90;2.05;;;28.60;65.20;;;;;;4935510;29;20051;-74
2022/07/14 08:19:33;;;;;;;5.53;2.35;;;28.80;65.20;;;;;;4943505;29;20340;-75
2022/07/14 08:21:59;;;;;;;10.57;2.38;;;28.90;64.80;;;;;;4942497;29;20020;-77
2022/07/14 08:24:25;;;;;;;6.05;2.38;;;29.00;64.70;;;;;;4941984;29;20473;-75
2022/07/14 08:26:51;;;;;;;5.93;1.90;;;28.90;64.40;;;;;;4943614;29;20443;-75
2022/07/14 08:29:17;;;;;;;7.75;2.45;;;28.80;64.80;;;;;;4943338;29;20035;-78
2022/07/14 08:31:42;;;;;;;5.63;2.00;;;28.90;65.30;;;;;;4942658;29;20322;-77
2022/07/14 08:34:08;;;;;;;6.60;1.88;;;29.10;65.30;;;;;;4942089;29;20039;-79
2022/07/14 08:36:34;;;;;;;6.28;1.80;;;29.20;64.70;;;;;;4942927;29;20035;-75
2022/07/14 08:39:01;;;;;;;8.05;1.38;;;29.10;64.80;;;;;;4943372;29;20095;-76
2022/07/14 08:41:28;;;;;;;5.63;1.70;;;29.10;64.50;;;;;;4941829;29;20220;-75
2022/07/14 08:43:55;;;;;;;8.48;2.03;;;29.10;64.40;;;;;;4956037;29;20039;-75
2022/07/14 08:46:22;;;;;;;5.07;1.88;;;29.10;64.90;;;;;;4943068;29;20332;-76
2022/07/14 08:48:47;;;;;;;4.93;1.80;;;29.10;64.90;;;;;;4943196;29;20126;-77
2022/07/14 08:51:14;;;;;;;3.97;1.40;;;29.10;64.50;;;;;;4942537;29;20032;-75
2022/07/14 08:53:44;;;;;;;6.18;1.27;;;29.10;64.40;;;;;;4943742;29;20039;-76
2022/07/14 08:56:09;;;;;;;6.45;1.50;;;29.20;64.40;;;;;;4943794;29;20328;-78
2022/07/14 08:58:35;;;;;;;6.50;1.60;;;29.30;64.20;;;;;;4943089;29;20028;-77
2022/07/14 09:01:01;;;;;;;10.30;1.50;;;29.30;64.80;;;;;;4943363;29;20084;-76
2022/07/14 09:03:27;;;;;;;4.35;1.25;;;29.50;64.30;;;;;;4926599;29;20064;-77
2022/07/14 09:05:53;;;;;;;3.33;1.23;;;29.70;63.50;;;;;;4944000;29;20201;-77
2022/07/14 09:08:19;;;;;;;7.13;1.23;;;29.80;62.40;;;;;;4942442;29;20023;-78
2022/07/14 09:10:46;;;;;;;12.50;1.83;;;29.90;62.60;;;;;;4943223;29;20047;-78
2022/07/14 09:13:18;;;;;;;4.90;1.60;;;30.00;62.70;;;;;;4942721;29;20035;-78
2022/07/14 09:15:48;;;;;;;9.45;1.60;;;30.10;62.90;;;;;;4942139;29;20443;-76
2022/07/14 09:18:26;;;;;;;4.85;1.38;;;30.30;62.40;;;;;;4943818;29;20217;-76
2022/07/14 09:20:54;;;;;;;5.03;1.40;;;30.40;61.20;;;;;;4943469;29;20069;-77
2022/07/14 09:23:28;;;;;;;4.82;1.70;;;30.60;61.20;;;;;;4943241;29;20725;-77
2022/07/14 09:26:11;;;;;;;6.07;1.60;;;30.80;59.00;;;;;;4944040;29;20361;-80
2022/07/14 09:28:42;;;;;;;5.20;1.60;;;31.10;57.00;;;;;;4941985;29;20101;-77
2022/07/14 09:31:28;;;;;;;5.20;1.33;;;31.30;57.30;;;;;;4942896;29;20040;-78
2022/07/14 09:33:59;;;;;;;4.35;0.90;;;31.60;54.80;;;;;;4944126;29;20051;-78
2022/07/14 09:36:30;;;;;;;4.25;1.13;;;31.60;53.20;;;;;;4928756;29;20036;-77
2022/07/14 09:39:01;;;;;;;5.28;0.90;;;31.60;52.90;;;;;;4912038;29;20226;-77
2022/07/14 09:41:29;;;;;;;5.75;0.90;;;31.60;53.10;;;;;;4929897;29;20099;-75
2022/07/14 09:44:17;;;;;;;2.80;0.90;;;31.80;52.80;;;;;;4945842;29;20232;-76
2022/07/14 09:46:45;;;;;;;2.90;0.57;;;32.00;49.90;;;;;;4948755;29;20070;-77
2022/07/14 09:49:11;;;;;;;;;;;32.10;48.60;;;;;;4951743;29;20028;-77
2022/07/14 09:52:06;;;;;;;5.35;0.68;;;32.30;47.90;;;;;;4947802;29;19903;-78
2022/07/14 09:54:45;;;;;;;1.50;0.75;;;32.30;48.00;;;;;;4946372;29;20032;-77
2022/07/14 09:57:13;;;;;;;4.68;1.23;;;32.40;47.60;;;;;;4946217;29;20043;-76
2022/07/14 09:59:47;;;;;;;2.20;0.80;;;32.40;47.60;;;;;;4946300;29;20107;-77
2022/07/14 10:02:18;;;;;;;1.67;0.65;;;32.70;47.90;;;;;;4945214;29;20378;-78
2022/07/14 10:04:45;;;;;;;2.17;0.70;;;32.70;47.00;;;;;;4945984;29;20254;-77
2022/07/14 10:07:12;;;;;;;2.78;0.70;;;32.70;47.80;;;;;;4946556;29;20023;-77
2022/07/14 10:09:43;;;;;;;1.83;0.90;;;32.70;47.10;;;;;;4928971;29;20313;-76
2022/07/14 10:12:09;;;;;;;1.45;0.70;;;32.70;47.10;;;;;;4946335;29;20075;-78
2022/07/14 10:14:36;;;;;;;1.30;0.70;;;32.60;47.00;;;;;;4945811;29;20036;-76
2022/07/14 10:17:03;;;;;;;1.98;0.77;;;32.70;47.10;;;;;;4945591;29;20091;-78
2022/07/14 10:19:28;;;;;;;3.60;1.00;;;32.70;47.60;;;;;;4945849;29;20049;-76
2022/07/14 10:21:59;;;;;;;5.90;0.88;;;32.90;47.00;;;;;;4945956;29;20387;-78
2022/07/14 10:24:25;;;;;;;2.45;0.75;;;32.70;46.70;;;;;;4946087;29;20028;-76
2022/07/14 10:26:53;;;;;;;3.30;0.70;;;32.60;47.00;;;;;;4945705;29;20068;-78
2022/07/14 10:29:19;;;;;;;1.80;0.82;;;32.60;47.00;;;;;;4946034;29;20036;-79
2022/07/14 10:32:13;;;;;;;4.38;1.35;;;32.60;47.20;;;;;;4944842;29;20326;-77
2022/07/14 10:34:46;;;;;;;3.03;0.70;;;32.80;47.40;;;;;;4945258;29;20038;-76
2022/07/14 10:37:39;;;;;;;3.00;0.88;;;32.80;46.80;;;;;;4945660;29;20043;-76
2022/07/14 10:40:26;;;;;;;2.20;0.80;;;33.10;46.20;;;;;;4946230;29;20038;-78
2022/07/14 10:43:11;;;;;;;1.17;0.57;;;33.10;45.80;;;;;;4945807;29;20095;-74
2022/07/14 10:46:03;;;;;;;2.03;0.90;;;33.10;46.20;;;;;;4944632;29;20039;-78
2022/07/14 10:48:35;;;;;;;2.45;1.10;;;33.40;46.00;;;;;;4940361;29;20040;-78
2022/07/14 10:51:26;;;;;;;2.10;0.65;;;33.60;46.10;;;;;;4946067;29;20075;-79
2022/07/14 10:54:13;;;;;;;6.03;1.17;;;33.80;45.80;;;;;;4945098;29;20028;-76
2022/07/14 10:56:41;;;;;;;1.88;0.73;;;33.90;45.40;;;;;;4944850;29;20043;-78
2022/07/14 10:59:26;;;;;;;2.00;0.85;;;34.10;45.10;;;;;;4945771;29;20076;-77
2022/07/14 11:02:13;;;;;;;3.83;1.00;;;34.10;45.00;;;;;;4939808;29;20111;-77
2022/07/14 11:08:09;;;;;;;3.75;0.70;;;34.30;44.80;;;;;;4926026;29;20047;-77
2022/07/14 11:10:35;;;;;;;4.50;1.00;;;34.30;44.90;;;;;;4908854;29;20107;-79
2022/07/14 11:13:03;;;;;;;4.45;0.80;;;34.40;44.30;;;;;;4926606;29;20028;-79
2022/07/14 11:15:54;;;;;;;1.80;0.70;;;34.50;44.80;;;;;;4925554;29;20040;-79
2022/07/14 11:18:21;;;;;;;1.85;0.77;;;34.60;44.90;;;;;;4926751;29;20040;-80
2022/07/14 11:21:08;;;;;;;2.45;0.70;;;34.70;45.00;;;;;;4909350;29;20063;-80
2022/07/14 11:23:52;;;;;;;4.32;0.80;;;34.90;44.50;;;;;;4917239;29;20095;-75
2022/07/14 11:26:34;;;;;;;2.17;0.80;;;35.00;43.80;;;;;;4923954;29;20032;-77
2022/07/14 11:29:04;;;;;;;1.75;0.70;;;35.30;43.80;;;;;;4906306;29;20085;-77
2022/07/14 11:31:46;;;;;;;1.55;0.85;;;35.40;43.40;;;;;;4913465;29;20076;-77
2022/07/14 11:37:05;;;;;;;2.05;0.85;;;35.90;43.70;;;;;;4906707;29;20184;-80
2022/07/14 11:39:40;;;;;;;2.97;0.80;;;36.30;44.00;;;;;;4893833;29;20017;-77
2022/07/14 11:42:08;;;;;;;4.13;1.20;;;36.60;43.60;;;;;;4923388;29;20032;-77
2022/07/14 11:44:54;;;;;;;4.75;0.85;;;36.70;43.50;;;;;;4906453;29;20028;-80
2022/07/14 11:47:30;;;;;;;5.88;0.98;;;36.90;43.70;;;;;;4905015;29;20044;-79
2022/07/14 11:50:03;;;;;;;2.92;0.80;;;37.70;42.90;;;;;;4920747;29;20036;-79
2022/07/14 11:52:34;;;;;;;1.55;0.70;;;38.20;42.40;;;;;;4921441;29;20042;-78
2022/07/14 11:55:03;;;;;;;3.35;0.90;;;38.80;41.60;;;;;;4911665;29;20035;-76
2022/07/14 11:57:29;;;;;;;3.08;0.77;;;39.80;42.10;;;;;;4925116;29;20039;-78
2022/07/14 12:00:11;;;;;;;7.15;0.88;;;40.70;41.90;;;;;;4924323;29;20076;-76
2022/07/14 12:02:54;;;;;;;4.40;0.68;;;40.90;41.20;;;;;;4924113;29;20052;-76
2022/07/14 12:05:25;;;;;;;6.22;1.13;;;41.80;41.40;;;;;;4924249;29;20035;-76
2022/07/14 12:07:56;;;;;;;3.17;0.82;;;42.50;41.20;;;;;;4924793;29;20534;-78
2022/07/14 12:10:42;;;;;;;5.05;1.02;;;43.00;40.00;;;;;;4925182;29;20106;-78
2022/07/14 12:13:08;;;;;;;2.75;0.55;;;42.40;40.20;;;;;;4925462;29;20043;-75
2022/07/14 12:15:36;;;;;;;3.83;0.70;;;42.50;40.90;;;;;;4924251;29;20036;-78
2022/07/14 12:18:04;;;;;;;4.53;0.80;;;43.20;39.60;;;;;;4925050;29;20036;-77
2022/07/14 12:20:43;;;;;;;3.67;1.10;;;43.80;39.70;;;;;;4925078;29;20051;-77
2022/07/14 12:23:09;;;;;;;2.75;0.70;;;43.80;39.60;;;;;;4925126;29;20207;-78
2022/07/14 12:25:40;;;;;;;3.17;0.73;;;44.00;39.50;;;;;;4924808;29;20310;-77
2022/07/14 12:28:09;;;;;;;3.55;0.70;;;44.50;39.00;;;;;;4924856;29;20035;-76
2022/07/14 12:30:47;;;;;;;2.28;0.90;;;43.90;38.30;;;;;;4923892;29;20216;-75
2022/07/14 12:33:16;;;;;;;4.47;0.90;;;42.70;38.90;;;;;;4924821;29;20099;-77
2022/07/14 12:35:43;;;;;;;2.15;0.70;;;42.30;39.30;;;;;;4924130;29;20028;-77
2022/07/14 12:38:11;;;;;;;2.53;0.82;;;42.30;39.40;;;;;;4924902;29;20053;-77
2022/07/14 12:40:38;;;;;;;3.70;0.90;;;41.80;39.40;;;;;;4924341;29;20047;-77
2022/07/14 12:43:07;;;;;;;2.13;0.80;;;42.20;39.30;;;;;;4924818;29;20037;-80
2022/07/14 12:46:01;;;;;;;3.00;0.93;;;41.40;38.80;;;;;;4924165;29;20063;-78
2022/07/14 12:48:27;;;;;;;3.08;0.70;;;39.90;39.60;;;;;;4924393;29;20036;-75
2022/07/14 12:50:53;;;;;;;1.90;0.80;;;39.50;40.40;;;;;;4931297;29;20327;-76
2022/07/14 12:53:20;;;;;;;3.75;0.77;;;38.80;40.80;;;;;;4923785;29;20043;-78
2022/07/14 12:55:46;;;;;;;2.88;0.68;;;38.40;40.50;;;;;;4896366;29;20031;-75
2022/07/14 12:58:13;;;;;;;5.57;0.80;;;38.00;40.90;;;;;;4935342;29;20099;-76
2022/07/14 13:00:40;;;;;;;4.40;0.68;;;37.60;41.20;;;;;;4923408;29;20036;-76
2022/07/14 13:03:11;;;;;;;4.17;0.60;;;37.40;41.60;;;;;;4919892;29;20340;-74
2022/07/14 13:05:47;;;;;;;2.97;0.65;;;37.90;41.30;;;;;;4907478;29;20195;-75
2022/07/14 13:08:35;;;;;;;3.97;0.80;;;38.60;41.20;;;;;;4934084;29;20031;-76
2022/07/14 13:11:10;;;;;;;3.20;0.68;;;40.20;40.50;;;;;;4964772;28;20094;-76
2022/07/14 13:13:38;;;;;;;3.92;0.95;;;40.50;39.80;;;;;;4965024;29;20027;-77
2022/07/14 13:16:24;;;;;;;3.05;0.95;;;40.20;40.20;;;;;;4964670;29;20050;-76
2022/07/14 13:19:13;;;;;;;3.40;0.70;;;41.10;39.80;;;;;;4965842;29;20106;-76
2022/07/14 13:21:54;;;;;;;7.32;0.88;;;41.30;39.00;;;;;;4965612;29;20031;-76
2022/07/14 13:24:45;;;;;;;2.47;0.68;;;40.30;39.30;;;;;;4966576;29;20046;-78
2022/07/14 13:27:18;;;;;;;1.50;0.60;;;39.30;40.80;;;;;;4966369;29;20225;-75
2022/07/14 13:29:50;;;;;;;4.63;1.00;;;38.80;42.00;;;;;;4966087;29;20043;-75
2022/07/14 13:32:18;;;;;;;5.75;0.73;;;38.50;42.40;;;;;;4954654;29;20326;-76
2022/07/14 13:34:46;;;;;;;5.97;0.82;;;39.20;42.30;;;;;;4947537;29;20282;-76
2022/07/14 13:37:17;;;;;;;3.13;0.70;;;40.50;40.80;;;;;;4946464;29;20050;-76
2022/07/14 13:40:01;;;;;;;2.83;0.75;;;40.70;40.20;;;;;;4914308;29;20039;-76
2022/07/14 13:42:27;;;;;;;3.10;0.90;;;39.80;40.60;;;;;;4945926;29;20036;-77
2022/07/14 13:44:53;;;;;;;3.65;0.90;;;39.40;41.20;;;;;;4935400;29;20309;-78
2022/07/14 13:47:19;;;;;;;4.13;0.80;;;38.80;41.40;;;;;;4965368;29;20039;-78
2022/07/14 13:52:43;;;;;;;3.88;0.90;;;38.90;41.40;;;;;;4965827;29;20128;-78
2022/07/14 13:55:09;;;;;;;5.78;0.80;;;39.60;41.00;;;;;;4965079;29;20051;-76
2022/07/14 13:57:35;;;;;;;4.97;0.80;;;39.70;40.90;;;;;;4929466;29;20092;-77
2022/07/14 14:00:01;;;;;;;2.45;0.70;;;40.00;40.70;;;;;;4945053;29;20134;-75
2022/07/14 14:03:22;;;;;;;4.55;0.60;;;41.20;40.30;;;;;;4936913;29;20060;-76
2022/07/14 14:05:12;;;;;;;3.83;0.77;;;42.40;39.80;;;;;;4927171;29;20028;-75
2022/07/14 14:07:38;;;;;;;3.05;0.57;;;43.60;39.00;;;;;;4927135;29;20100;-76
2022/07/14 14:12:54;;;;;;;2.67;0.77;;;40.60;40.40;;;;;;4919686;29;20071;-78
2022/07/14 14:15:20;;;;;;;1.88;0.75;;;38.80;41.50;;;;;;4926667;29;20031;-79
2022/07/14 14:17:46;;;;;;;3.28;0.70;;;37.90;42.30;;;;;;4927475;29;20054;-79
2022/07/14 14:20:27;;;;;;;3.42;0.70;;;37.50;42.90;;;;;;4928353;29;20040;-80
2022/07/14 14:22:53;;;;;;;2.85;0.80;;;38.40;42.80;;;;;;4926884;29;20031;-78
2022/07/14 14:25:19;;;;;;;3.78;0.60;;;41.40;41.00;;;;;;4928103;29;20084;-79
2022/07/14 14:27:44;;;;;;;2.80;0.68;;;42.50;39.60;;;;;;4928073;29;20027;-79
2022/07/14 14:30:11;;;;;;;1.20;0.70;;;43.60;39.30;;;;;;4926528;29;20321;-80
2022/07/14 14:32:36;;;;;;;2.58;0.63;;;45.00;38.90;;;;;;4926907;29;20024;-78
2022/07/14 14:35:03;;;;;;;3.22;0.80;;;45.80;38.20;;;;;;4927128;29;20020;-79
2022/07/14 14:37:29;;;;;;;1.77;0.63;;;45.70;38.40;;;;;;4927322;29;20028;-79
2022/07/14 14:39:55;;;;;;;4.80;0.75;;;46.60;38.00;;;;;;4911303;29;20214;-80
2022/07/14 14:42:21;;;;;;;2.20;0.80;;;46.90;37.60;;;;;;4927341;29;20028;-79
2022/07/14 14:44:47;;;;;;;1.40;0.60;;;47.30;37.50;;;;;;4927718;29;20035;-78
2022/07/14 14:47:12;;;;;;;3.30;0.80;;;46.70;38.10;;;;;;4927743;29;20048;-79
2022/07/14 14:49:52;;;;;;;2.85;0.70;;;47.30;37.40;;;;;;4928228;29;20032;-78
2022/07/14 14:52:19;;;;;;;1.38;0.70;;;47.20;37.30;;;;;;4910979;29;20036;-78
2022/07/14 14:54:45;;;;;;;2.55;0.60;;;47.60;37.40;;;;;;4926340;29;20024;-78
2022/07/14 14:57:11;;;;;;;3.35;0.57;;;48.80;37.00;;;;;;4927844;29;20039;-78
2022/07/14 14:59:37;;;;;;;3.50;0.63;;;48.70;36.90;;;;;;4927902;29;20036;-78
2022/07/14 15:02:03;;;;;;;4.03;0.63;;;49.30;37.00;;;;;;4932181;29;20059;-78
2022/07/14 15:04:32;;;;;;;1.57;0.70;;;50.50;36.40;;;;;;4946998;29;20040;-79
2022/07/14 15:06:58;;;;;;;2.83;0.75;;;50.10;36.10;;;;;;4946317;29;20027;-76
2022/07/14 15:09:23;;;;;;;2.50;0.80;;;49.80;36.20;;;;;;4947109;29;20071;-80
2022/07/14 15:11:49;;;;;;;3.47;0.80;;;48.90;36.60;;;;;;4945640;29;20071;-79
2022/07/14 15:14:15;;;;;;;2.97;0.70;;;47.30;37.40;;;;;;4948124;29;20030;-79
2022/07/14 15:16:41;;;;;;;4.50;0.80;;;44.10;38.70;;;;;;4945566;29;20039;-78
2022/07/14 15:19:07;;;;;;;3.13;0.88;;;41.50;40.60;;;;;;4946257;29;20046;-78
2022/07/14 15:21:32;;;;;;;4.13;0.70;;;40.20;41.40;;;;;;4946132;29;20032;-79
2022/07/14 15:23:59;;;;;;;2.35;0.80;;;39.40;42.30;;;;;;4946161;29;20023;-79
2022/07/14 15:26:26;;;;;;;3.78;0.95;;;38.90;43.00;;;;;;4946399;29;20040;-79
2022/07/14 15:28:52;;;;;;;2.97;1.00;;;38.20;43.70;;;;;;4944969;29;20025;-78
2022/07/14 15:31:17;;;;;;;2.22;0.82;;;37.50;44.50;;;;;;4945481;29;20043;-78
2022/07/14 15:33:56;;;;;;;4.10;1.10;;;36.80;45.30;;;;;;4928501;29;20152;-81
2022/07/14 15:36:31;;;;;;;4.53;1.13;;;36.30;46.10;;;;;;4945753;29;20047;-78
2022/07/14 15:41:42;;;;;;;6.55;1.20;;;36.20;46.40;;;;;;4946162;29;20035;-78
2022/07/14 15:44:12;;;;;;;5.57;1.00;;;36.60;46.30;;;;;;4946181;29;20038;-79
2022/07/14 15:46:39;;;;;;;4.60;1.40;;;37.10;46.20;;;;;;4945503;29;20106;-79
2022/07/14 15:49:06;;;;;;;7.15;1.67;;;38.10;45.80;;;;;;4960387;29;20037;-80
2022/07/14 15:51:41;;;;;;;2.40;0.90;;;39.00;44.40;;;;;;4946218;29;20071;-77
2022/07/14 15:54:07;;;;;;;2.85;0.90;;;39.30;44.00;;;;;;4928685;29;20338;-78
2022/07/14 15:56:33;;;;;;;5.22;1.30;;;38.50;44.40;;;;;;4945347;29;20032;-78
2022/07/14 15:58:59;;;;;;;2.83;1.35;;;37.50;45.30;;;;;;4928054;29;20059;-77
2022/07/14 16:01:26;;;;;;;3.35;1.10;;;36.60;46.40;;;;;;4944437;29;20058;-77
2022/07/14 16:03:53;;;;;;;3.92;1.27;;;36.00;47.60;;;;;;4928458;29;20328;-80
2022/07/14 16:06:20;;;;;;;7.38;1.35;;;35.60;48.60;;;;;;4945215;29;20035;-79
2022/07/14 16:08:46;;;;;;;6.50;1.80;;;35.10;49.20;;;;;;4946007;29;20255;-79
2022/07/14 16:11:12;;;;;;;5.50;1.35;;;34.70;50.10;;;;;;4945423;29;20039;-78
2022/07/14 16:13:38;;;;;;;4.20;1.35;;;34.50;50.50;;;;;;4945386;29;20047;-77
2022/07/14 16:16:05;;;;;;;5.00;1.40;;;34.50;50.70;;;;;;4944028;29;20043;-78
2022/07/14 16:18:30;;;;;;;3.58;1.73;;;34.60;50.70;;;;;;4945354;29;20328;-78
2022/07/14 16:21:00;;;;;;;4.70;1.60;;;34.70;51.00;;;;;;4945172;29;20039;-79
2022/07/14 16:23:26;;;;;;;3.28;1.70;;;34.50;51.70;;;;;;4944194;29;20218;-77
2022/07/14 16:25:52;;;;;;;4.50;1.73;;;34.90;51.70;;;;;;4943484;29;20085;-78
2022/07/14 16:28:19;;;;;;;3.53;1.63;;;36.40;50.60;;;;;;4928488;29;20023;-78
2022/07/14 16:30:48;;;;;;;3.70;1.70;;;36.20;50.90;;;;;;4927629;29;20036;-78
2022/07/14 16:33:19;;;;;;;4.50;2.25;;;35.70;50.90;;;;;;4945125;29;20031;-78
2022/07/14 16:35:49;;;;;;;5.28;2.17;;;35.00;51.80;;;;;;4944890;29;20034;-78
2022/07/14 16:38:14;;;;;;;4.47;1.77;;;34.90;52.10;;;;;;4943604;29;20039;-77
2022/07/14 16:40:42;;;;;;;4.38;1.67;;;34.80;52.10;;;;;;4944807;29;20050;-78
2022/07/14 16:43:08;;;;;;;;;;;35.00;52.40;;;;;;4944141;29;20036;-78
2022/07/14 16:45:34;;;;;;;6.55;2.17;;;34.70;52.10;;;;;;4943072;29;19947;-77
2022/07/14 16:48:00;;;;;;;5.82;1.90;;;34.20;52.60;;;;;;4943860;29;20047;-78
2022/07/14 16:50:25;;;;;;;6.70;1.92;;;33.80;53.10;;;;;;4944567;29;20225;-78
2022/07/14 16:52:53;;;;;;;7.37;1.80;;;33.50;53.40;;;;;;4946168;29;20020;-78
2022/07/14 16:55:19;;;;;;;4.70;1.83;;;33.20;54.00;;;;;;4944995;29;20812;-78
2022/07/14 16:57:44;;;;;;;2.88;2.00;;;33.10;54.60;;;;;;4944593;29;20360;-77
2022/07/14 17:00:14;;;;;;;6.95;2.15;;;32.70;55.30;;;;;;4943502;29;20103;-77
2022/07/14 17:02:43;;;;;;;8.57;2.20;;;32.60;55.80;;;;;;4944225;29;20071;-76
2022/07/14 17:07:55;;;;;;;4.32;2.08;;;33.30;55.50;;;;;;4944164;29;20043;-77
2022/07/14 17:10:21;;;;;;;3.58;2.08;;;34.80;53.40;;;;;;4944769;29;20019;-77
2022/07/14 17:12:47;;;;;;;6.97;2.65;;;35.60;52.40;;;;;;4944596;29;20043;-77
2022/07/14 17:15:13;;;;;;;7.68;2.25;;;36.80;51.00;;;;;;4943875;29;20023;-77
2022/07/14 17:17:39;;;;;;;5.32;1.77;;;37.40;50.00;;;;;;4944430;29;20027;-78
2022/07/14 17:20:06;;;;;;;4.53;1.75;;;38.40;49.00;;;;;;4944003;29;20199;-77
2022/07/14 17:22:33;;;;;;;9.52;2.42;;;39.00;48.50;;;;;;4944667;29;20393;-77
2022/07/14 17:24:59;;;;;;;3.75;1.92;;;39.60;48.00;;;;;;4944073;29;20106;-78
2022/07/14 17:27:24;;;;;;;5.43;1.90;;;39.40;48.10;;;;;;4944546;29;20028;-78
2022/07/14 17:29:50;;;;;;;4.57;2.10;;;39.00;48.30;;;;;;4942885;29;20036;-78
2022/07/14 17:32:16;;;;;;;4.07;1.98;;;38.70;48.70;;;;;;4944178;29;20035;-77
2022/07/14 17:34:42;;;;;;;4.03;1.88;;;38.60;48.80;;;;;;4944553;29;20152;-77
2022/07/14 17:37:08;;;;;;;5.70;2.17;;;38.50;48.80;;;;;;4943551;29;20152;-78
2022/07/14 17:39:34;;;;;;;5.38;2.00;;;38.50;48.70;;;;;;4944848;29;20036;-78
2022/07/14 17:41:59;;;;;;;7.75;1.90;;;38.20;48.30;;;;;;4942963;29;20379;-76
2022/07/14 17:44:25;;;;;;;8.40;2.20;;;37.80;47.60;;;;;;4944481;29;20098;-78
2022/07/14 17:46:51;;;;;;;6.43;1.88;;;37.10;47.00;;;;;;4942342;29;20070;-78
2022/07/14 17:49:17;;;;;;;8.13;2.20;;;36.50;47.00;;;;;;4944608;29;20028;-79
2022/07/14 17:54:27;;;;;;;11.40;3.03;;;35.60;47.50;;;;;;4944729;29;20035;-79
2022/07/14 17:56:53;;;;;;;8.27;2.00;;;35.20;47.50;;;;;;4943729;29;20090;-79
2022/07/14 17:59:25;;;;;;;9.65;1.80;;;35.10;47.60;;;;;;4947528;29;20036;-78
2022/07/14 18:01:55;;;;;;;4.35;1.55;;;35.00;47.70;;;;;;4942447;29;20207;-79
2022/07/14 18:04:27;;;;;;;5.97;1.77;;;34.50;47.70;;;;;;4929361;29;20028;-81
2022/07/14 18:07:01;;;;;;;8.52;2.08;;;33.40;48.80;;;;;;4912400;29;20036;-79
2022/07/14 18:09:28;;;;;;;3.92;1.60;;;32.20;50.10;;;;;;4928521;29;20090;-81
2022/07/14 18:11:54;;;;;;;9.57;2.00;;;31.30;51.60;;;;;;4926673;29;20093;-80
2022/07/14 18:14:19;;;;;;;8.40;2.25;;;30.60;52.40;;;;;;4928035;29;20052;-79
2022/07/14 18:16:48;;;;;;;4.30;1.85;;;30.10;53.10;;;;;;4927652;29;20105;-80
2022/07/14 18:19:14;;;;;;;6.13;2.28;;;29.70;53.80;;;;;;4927954;29;20055;-78
2022/07/14 18:21:41;;;;;;;7.05;1.88;;;29.00;54.90;;;;;;4908180;29;20020;-79
2022/07/14 18:24:17;;;;;;;4.90;1.83;;;28.50;55.40;;;;;;4918100;29;20039;-77